createdAt,value
2018-05-03T00:00:29.523Z,14.26
2018-05-03T00:02:57.350Z,14.22
2018-05-03T00:05:24.956Z,14.24
2018-05-03T00:07:52.578Z,14.28
2018-05-03T00:10:20.202Z,14.25
2018-05-03T00:12:47.790Z,14.38
2018-05-03T00:15:15.527Z,14.38
2018-05-03T00:17:43.122Z,14.39
2018-05-03T00:20:10.715Z,14.35
2018-05-03T00:22:38.328Z,14.50
2018-05-03T00:25:05.914Z,14.39
2018-05-03T00:27:33.558Z,14.46
2018-05-03T00:30:01.162Z,14.46
2018-05-03T00:32:28.768Z,14.42
2018-05-03T00:34:56.378Z,14.61
2018-05-03T00:37:23.970Z,14.70
2018-05-03T00:39:51.833Z,14.69
2018-05-03T00:42:19.422Z,14.43
2018-05-03T00:44:47.013Z,14.40
2018-05-03T00:47:14.639Z,14.56
2018-05-03T00:49:42.265Z,14.27
2018-05-03T00:52:10.056Z,14.24
2018-05-03T00:54:48.665Z,14.10
2018-05-03T00:57:16.372Z,13.97
2018-05-03T00:59:43.980Z,14.02
2018-05-03T01:02:11.723Z,14.06
2018-05-03T01:04:39.356Z,14.02
2018-05-03T01:07:06.970Z,13.93
2018-05-03T01:09:35.391Z,13.94
2018-05-03T01:12:02.988Z,13.73
2018-05-03T01:14:30.583Z,13.74
2018-05-03T01:16:58.201Z,13.74
2018-05-03T01:19:25.802Z,13.78
2018-05-03T01:21:53.462Z,13.97
2018-05-03T01:24:21.047Z,13.69
2018-05-03T01:26:48.670Z,13.56
2018-05-03T01:29:16.298Z,13.54
2018-05-03T01:31:43.890Z,13.67
2018-05-03T01:34:11.883Z,13.58
2018-05-03T01:36:39.478Z,13.62
2018-05-03T01:39:07.091Z,13.66
2018-05-03T01:41:34.778Z,13.62
2018-05-03T01:44:02.389Z,13.51
2018-05-03T01:46:30.003Z,13.39
2018-05-03T01:48:57.628Z,13.49
2018-05-03T01:51:25.228Z,13.48
2018-05-03T01:53:52.871Z,13.58
2018-05-03T01:56:20.481Z,13.59
2018-05-03T01:58:48.073Z,13.58
2018-05-03T02:01:15.865Z,13.90
2018-05-03T02:03:43.475Z,13.88
2018-05-03T02:06:11.070Z,13.89
2018-05-03T02:08:38.682Z,13.75
2018-05-03T02:11:06.293Z,13.69
2018-05-03T02:13:34.174Z,13.64
2018-05-03T02:16:01.786Z,13.94
2018-05-03T03:44:15.530Z,12.83
2018-05-03T03:46:43.156Z,12.64
2018-05-03T03:49:10.903Z,12.54
2018-05-03T03:51:38.500Z,12.54
2018-05-03T03:54:06.091Z,12.59
2018-05-03T03:56:33.793Z,12.72
2018-05-03T03:59:01.494Z,12.70
2018-05-03T04:01:29.310Z,12.76
2018-05-03T04:03:56.906Z,12.70
2018-05-03T04:06:24.506Z,12.69
2018-05-03T04:08:52.134Z,12.52
2018-05-03T04:11:19.726Z,12.65
2018-05-03T04:13:47.529Z,12.63
2018-05-03T04:16:15.133Z,12.80
2018-05-03T04:18:54.926Z,12.78
2018-05-03T04:21:34.345Z,12.72
2018-05-03T04:24:13.749Z,12.63
2018-05-03T04:26:41.370Z,12.60
2018-05-03T04:29:09.143Z,12.71
2018-05-03T04:31:36.740Z,12.74
2018-05-03T04:34:04.358Z,12.46
2018-05-03T04:36:31.998Z,12.53
2018-05-03T04:38:59.627Z,12.56
2018-05-03T04:41:27.247Z,12.61
2018-05-03T04:43:54.871Z,12.53
2018-05-03T04:46:22.472Z,12.43
2018-05-03T04:48:50.095Z,12.63
2018-05-03T04:51:17.684Z,12.65
2018-05-03T04:53:45.285Z,12.53
2018-05-03T04:56:13.111Z,12.43
2018-05-03T04:58:40.712Z,12.41
2018-05-03T05:01:08.340Z,12.36
2018-05-03T05:03:36.018Z,12.46
2018-05-03T05:06:03.629Z,12.27
2018-05-03T05:08:31.227Z,12.32
2018-05-03T05:10:59.200Z,12.39
2018-05-03T05:13:26.810Z,12.30
2018-05-03T05:15:54.470Z,12.43
2018-05-03T05:18:22.070Z,12.53
2018-05-03T05:20:49.666Z,12.57
2018-05-03T05:23:17.282Z,12.72
2018-05-03T05:25:44.878Z,12.90
2018-05-03T05:28:12.771Z,12.57
2018-05-03T05:30:40.410Z,12.67
2018-05-03T05:33:08.025Z,12.61
2018-05-03T05:35:35.809Z,12.69
2018-05-03T05:38:03.419Z,12.76
2018-05-03T05:40:31.263Z,12.73
2018-05-03T05:42:58.891Z,12.71
2018-05-03T05:45:26.500Z,12.70
2018-05-03T05:47:54.295Z,12.88
2018-05-03T05:50:21.904Z,13.01
2018-05-03T05:52:49.561Z,13.02
2018-05-03T05:55:17.245Z,13.15
2018-05-03T05:57:44.855Z,12.91
2018-05-03T06:00:12.511Z,12.98
2018-05-03T06:02:40.116Z,13.05
2018-05-03T06:05:07.866Z,13.04
2018-05-03T06:07:35.460Z,12.93
2018-05-03T06:10:03.059Z,13.09
2018-05-03T06:12:30.682Z,13.09
2018-05-03T06:14:58.278Z,12.87
2018-05-03T06:17:25.987Z,12.85
2018-05-03T06:19:53.586Z,13.02
2018-05-03T06:22:21.183Z,13.07
2018-05-03T06:24:48.804Z,13.27
2018-05-03T06:27:16.411Z,13.44
2018-05-03T06:29:44.213Z,13.40
2018-05-03T06:32:11.810Z,13.45
2018-05-03T06:34:39.403Z,13.48
2018-05-03T06:37:07.026Z,13.41
2018-05-03T06:39:34.632Z,13.58
2018-05-03T06:42:02.516Z,13.45
2018-05-03T06:44:30.119Z,13.60
2018-05-03T06:46:57.712Z,13.74
2018-05-03T06:49:25.632Z,13.91
2018-05-03T06:51:53.234Z,13.95
2018-05-03T06:54:21.013Z,14.05
2018-05-03T06:56:48.616Z,14.21
2018-05-03T06:59:16.202Z,14.15
2018-05-03T07:01:43.821Z,14.41
2018-05-03T07:04:11.467Z,14.52
2018-05-03T07:06:39.578Z,14.12
2018-05-03T07:09:07.163Z,14.10
2018-05-03T07:11:34.771Z,14.17
2018-05-03T07:14:02.385Z,14.25
2018-05-03T07:16:29.982Z,14.42
2018-05-03T07:18:57.613Z,14.46
2018-05-03T07:21:25.217Z,14.46
2018-05-03T07:23:52.893Z,14.54
2018-05-03T07:26:20.478Z,14.72
2018-05-03T07:28:48.202Z,14.65
2018-05-03T07:31:16.055Z,14.76
2018-05-03T07:33:43.650Z,15.03
2018-05-03T07:36:11.289Z,15.20
2018-05-03T07:38:38.915Z,15.26
2018-05-03T07:41:06.521Z,15.27
2018-05-03T07:43:34.278Z,15.31
2018-05-03T07:46:01.915Z,15.31
2018-05-03T07:48:29.597Z,15.59
2018-05-03T07:50:58.106Z,15.64
2018-05-03T07:53:31.162Z,15.84
2018-05-03T07:56:00.419Z,16.08
2018-05-03T07:58:30.063Z,16.10
2018-05-03T08:00:58.261Z,16.12
2018-05-03T08:03:25.921Z,16.17
2018-05-03T08:05:53.567Z,16.20
2018-05-03T08:08:21.350Z,16.18
2018-05-03T08:10:49.238Z,16.20
2018-05-03T08:13:16.826Z,16.23
2018-05-03T08:15:44.648Z,16.42
2018-05-03T08:18:12.240Z,16.36
2018-05-03T08:20:40.177Z,16.58
2018-05-03T08:23:07.764Z,16.34
2018-05-03T08:25:35.369Z,16.26
2018-05-03T08:28:02.991Z,16.35
2018-05-03T08:30:30.585Z,16.62
2018-05-03T08:32:58.580Z,16.89
2018-05-03T08:35:26.174Z,16.97
2018-05-03T08:37:53.763Z,16.81
2018-05-03T08:40:21.382Z,16.86
2018-05-03T08:42:48.966Z,16.89
2018-05-03T08:45:16.890Z,16.97
2018-05-03T08:47:44.478Z,17.09
2018-05-03T08:50:12.073Z,17.19
2018-05-03T08:52:39.689Z,17.10
2018-05-03T08:55:07.295Z,17.23
2018-05-03T08:57:34.924Z,17.33
2018-05-03T09:00:02.509Z,17.41
2018-05-03T09:02:30.103Z,17.38
2018-05-03T09:04:57.837Z,17.56
2018-05-03T09:07:25.426Z,17.58
2018-05-03T09:09:53.138Z,17.72
2018-05-03T09:12:20.723Z,17.83
2018-05-03T09:14:48.314Z,17.88
2018-05-03T09:17:15.925Z,17.88
2018-05-03T09:19:43.510Z,17.93
2018-05-03T09:22:11.322Z,18.10
2018-05-03T09:24:39.138Z,18.10
2018-05-03T09:27:06.722Z,18.20
2018-05-03T09:29:34.339Z,18.34
2018-05-03T09:32:01.921Z,18.27
2018-05-03T09:34:29.646Z,18.26
2018-05-03T09:36:57.239Z,18.28
2018-05-03T09:39:24.827Z,18.23
2018-05-03T09:41:52.636Z,18.31
2018-05-03T09:44:20.223Z,18.43
2018-05-03T09:46:47.844Z,18.30
2018-05-03T09:49:15.429Z,18.39
2018-05-03T09:51:43.019Z,18.42
2018-05-03T09:54:10.741Z,18.33
2018-05-03T09:56:38.540Z,18.39
2018-05-03T09:59:06.362Z,18.54
2018-05-03T10:01:33.954Z,18.46
2018-05-03T10:04:01.550Z,18.51
2018-05-03T10:06:29.155Z,18.61
2018-05-03T10:08:58.414Z,18.52
2018-05-03T10:11:26.514Z,18.60
2018-05-03T10:13:54.112Z,18.70
2018-05-03T10:16:21.705Z,18.56
2018-05-03T10:18:49.333Z,18.44
2018-05-03T10:21:16.914Z,18.60
2018-05-03T10:23:44.541Z,18.88
2018-05-03T10:26:12.545Z,18.86
2018-05-03T10:28:40.133Z,18.85
2018-05-03T10:31:07.808Z,18.70
2018-05-03T10:33:35.518Z,18.91
2018-05-03T10:36:03.583Z,19.04
2018-05-03T10:38:32.879Z,19.20
2018-05-03T10:41:00.704Z,19.21
2018-05-03T10:43:29.827Z,19.17
2018-05-03T10:46:11.211Z,18.95
2018-05-03T10:48:52.073Z,18.89
2018-05-03T10:51:32.416Z,18.92
2018-05-03T10:54:11.551Z,19.11
2018-05-03T10:56:53.780Z,19.27
2018-05-03T10:59:23.124Z,19.60
2018-05-03T11:02:07.594Z,19.55
2018-05-03T11:04:46.006Z,19.77
2018-05-03T11:07:16.333Z,19.92
2018-05-03T11:09:58.491Z,19.70
2018-05-03T11:12:39.792Z,19.85
2018-05-03T11:15:18.347Z,20.14
2018-05-03T11:17:55.237Z,20.25
2018-05-03T11:20:38.118Z,20.21
2018-05-03T11:23:13.540Z,20.11
2018-05-03T11:25:49.933Z,19.92
2018-05-03T11:28:25.074Z,20.23
2018-05-03T11:30:53.398Z,20.28
2018-05-03T11:33:21.000Z,20.06
2018-05-03T11:35:48.588Z,20.07
2018-05-03T11:38:16.196Z,19.96
2018-05-03T11:40:43.786Z,19.84
2018-05-03T11:43:11.398Z,19.91
2018-05-03T11:45:38.997Z,19.88
2018-05-03T11:48:06.618Z,20.03
2018-05-03T11:50:34.308Z,20.13
2018-05-03T11:53:01.935Z,20.38
2018-05-03T11:55:29.519Z,19.98
2018-05-03T11:57:57.130Z,20.21
2018-05-03T12:00:24.715Z,20.60
2018-05-03T12:02:52.337Z,21.02
2018-05-03T12:05:19.935Z,21.16
2018-05-03T12:07:47.636Z,21.53
2018-05-03T12:10:15.258Z,21.76
2018-05-03T12:12:42.881Z,21.77
2018-05-03T12:15:10.490Z,22.20
2018-05-03T12:17:38.083Z,21.65
2018-05-03T12:20:05.743Z,21.91
2018-05-03T12:22:33.339Z,22.15
2018-05-03T12:25:00.968Z,21.93
2018-05-03T12:27:28.560Z,21.88
2018-05-03T12:29:56.155Z,21.90
2018-05-03T12:32:23.773Z,21.98
2018-05-03T12:34:51.396Z,21.85
2018-05-03T12:37:19.045Z,21.80
2018-05-03T12:39:46.643Z,22.09
2018-05-03T12:42:14.259Z,21.94
2018-05-03T12:44:41.846Z,22.19
2018-05-03T12:47:09.471Z,22.49
2018-05-03T12:49:37.598Z,22.86
2018-05-03T12:52:05.212Z,23.09
2018-05-03T12:54:32.818Z,23.06
2018-05-03T12:57:00.435Z,23.77
2018-05-03T12:59:28.025Z,24.46
2018-05-03T13:01:55.651Z,25.04
2018-05-03T13:04:23.242Z,25.68
2018-05-03T13:06:50.925Z,26.06
2018-05-03T13:09:18.515Z,26.08
2018-05-03T13:11:46.555Z,25.48
2018-05-03T13:14:14.203Z,25.57
2018-05-03T13:16:41.754Z,24.68
2018-05-03T13:19:09.362Z,24.64
2018-05-03T13:21:37.024Z,24.76
2018-05-03T13:24:04.646Z,24.09
2018-05-03T13:26:32.260Z,24.08
2018-05-03T13:28:59.906Z,24.17
2018-05-03T13:31:27.494Z,24.65
2018-05-03T13:33:55.090Z,25.16
2018-05-03T13:36:22.885Z,24.31
2018-05-03T13:38:50.504Z,23.90
2018-05-03T13:41:18.171Z,23.78
2018-05-03T13:43:45.739Z,23.47
2018-05-03T13:46:13.371Z,22.86
2018-05-03T13:48:40.961Z,22.57
2018-05-03T13:51:08.558Z,22.52
2018-05-03T13:53:36.175Z,22.37
2018-05-03T13:56:03.774Z,22.04
2018-05-03T13:58:31.408Z,21.73
2018-05-03T14:00:59.017Z,21.64
2018-05-03T14:03:26.863Z,21.70
2018-05-03T14:05:54.457Z,21.84
2018-05-03T14:08:22.114Z,21.36
2018-05-03T14:10:49.737Z,21.58
2018-05-03T14:13:17.343Z,21.92
2018-05-03T14:15:44.968Z,22.19
2018-05-03T14:18:12.563Z,22.12
2018-05-03T14:20:40.363Z,22.22
2018-05-03T14:23:07.958Z,22.07
2018-05-03T14:25:35.648Z,22.16
2018-05-03T14:28:04.021Z,21.87
2018-05-03T14:30:31.610Z,21.80
2018-05-03T14:32:59.223Z,21.76
2018-05-03T14:35:26.988Z,21.69
2018-05-03T14:37:54.576Z,21.65
2018-05-03T14:40:22.168Z,21.70
2018-05-03T14:42:49.758Z,21.68
2018-05-03T14:45:18.174Z,21.60
2018-05-03T14:47:45.772Z,21.56
2018-05-03T14:50:13.574Z,21.71
2018-05-03T14:52:41.158Z,21.72
2018-05-03T14:55:09.072Z,21.71
2018-05-03T14:57:36.619Z,21.74
2018-05-03T15:00:04.334Z,21.68
2018-05-03T15:02:31.954Z,21.74
2018-05-03T15:04:59.542Z,21.66
2018-05-03T15:07:29.397Z,21.77
2018-05-03T15:09:56.999Z,21.70
2018-05-03T15:12:24.643Z,21.43
2018-05-03T15:14:52.839Z,21.65
2018-05-03T15:17:20.425Z,21.69
2018-05-03T15:19:48.038Z,21.67
2018-05-03T15:22:15.657Z,21.62
2018-05-03T15:24:43.269Z,21.56
2018-05-03T15:27:10.860Z,21.53
2018-05-03T15:29:38.885Z,21.49
2018-05-03T15:32:06.478Z,21.31
2018-05-03T15:34:34.070Z,21.45
2018-05-03T15:37:01.703Z,21.34
2018-05-03T15:39:29.299Z,21.44
2018-05-03T15:41:56.911Z,21.50
2018-05-03T15:44:24.508Z,21.39
2018-05-03T15:46:52.476Z,21.34
2018-05-03T15:49:20.074Z,21.28
2018-05-03T15:51:47.668Z,20.97
2018-05-03T15:54:15.281Z,21.00
2018-05-03T15:56:42.876Z,21.02
2018-05-03T15:59:10.491Z,21.03
2018-05-03T16:01:38.162Z,21.03
2018-05-03T16:04:05.933Z,20.98
2018-05-03T16:06:33.529Z,20.86
2018-05-03T16:09:01.121Z,20.86
2018-05-03T16:11:28.745Z,20.77
2018-05-03T16:13:56.330Z,20.79
2018-05-03T16:16:23.943Z,20.68
2018-05-03T16:18:51.616Z,20.56
2018-05-03T16:21:19.825Z,20.62
2018-05-03T16:23:47.420Z,20.65
2018-05-03T16:26:15.014Z,20.45
2018-05-03T16:28:42.636Z,20.50
2018-05-03T16:31:10.234Z,20.44
2018-05-03T16:33:37.869Z,20.42
2018-05-03T16:36:05.452Z,20.41
2018-05-03T16:38:33.110Z,20.35
2018-05-03T16:41:00.726Z,20.27
2018-05-03T16:43:28.323Z,20.24
2018-05-03T16:45:55.938Z,20.35
2018-05-03T16:48:23.528Z,20.39
2018-05-03T16:50:51.154Z,20.32
2018-05-03T16:53:18.748Z,20.30
2018-05-03T16:55:46.334Z,20.19
2018-05-03T16:58:13.961Z,20.03
2018-05-03T17:00:41.550Z,20.01
2018-05-03T17:03:09.302Z,19.94
2018-05-03T17:05:36.892Z,19.88
2018-05-03T17:08:04.502Z,19.92
2018-05-03T17:10:32.124Z,19.75
2018-05-03T17:12:59.722Z,19.79
2018-05-03T17:15:27.709Z,19.77
2018-05-03T17:17:55.305Z,19.73
2018-05-03T17:20:23.110Z,19.70
2018-05-03T17:22:50.730Z,19.61
2018-05-03T17:25:18.319Z,19.60
2018-05-03T17:27:45.958Z,19.65
2018-05-03T17:30:13.598Z,19.50
2018-05-03T17:32:41.254Z,19.41
2018-05-03T17:35:08.860Z,19.36
2018-05-03T17:37:36.459Z,19.25
2018-05-03T17:40:04.144Z,19.27
2018-05-03T17:42:31.742Z,19.23
2018-05-03T17:44:59.469Z,19.17
2018-05-03T17:47:27.067Z,19.19
2018-05-03T17:49:55.020Z,18.97
2018-05-03T17:52:22.613Z,18.99
2018-05-03T17:54:51.125Z,18.86
2018-05-03T17:57:18.759Z,18.92
2018-05-03T17:59:46.358Z,18.91
2018-05-03T18:02:13.980Z,18.74
2018-05-03T18:04:41.605Z,18.70
2018-05-03T18:07:09.554Z,18.69
2018-05-03T18:09:37.149Z,18.66
2018-05-03T18:12:04.761Z,18.58
2018-05-03T18:14:32.398Z,18.60
2018-05-03T18:16:59.994Z,18.52
2018-05-03T18:19:27.610Z,18.55
2018-05-03T18:21:55.224Z,18.54
2018-05-03T18:24:22.868Z,18.50
2018-05-03T18:26:50.455Z,18.45
2018-05-03T18:29:18.053Z,18.36
2018-05-03T18:31:45.686Z,18.38
2018-05-03T18:34:13.355Z,18.33
2018-05-03T18:36:41.194Z,18.41
2018-05-03T18:39:08.800Z,18.27
2018-05-03T18:41:36.397Z,18.26
2018-05-03T18:44:04.034Z,18.25
2018-05-03T18:46:31.656Z,18.31
2018-05-03T18:48:59.346Z,18.19
2018-05-03T18:51:27.054Z,18.00
2018-05-03T18:53:54.682Z,17.95
2018-05-03T18:56:22.283Z,17.93
2018-05-03T18:58:49.881Z,17.95
2018-05-03T19:01:17.586Z,17.82
2018-05-03T19:03:45.122Z,17.77
2018-05-03T19:06:12.743Z,17.81
2018-05-03T19:08:40.335Z,17.80
2018-05-03T19:11:08.280Z,17.72
2018-05-03T19:13:35.882Z,17.68
2018-05-03T19:16:03.476Z,17.64
2018-05-03T19:18:31.094Z,17.68
2018-05-03T19:20:58.691Z,17.63
2018-05-03T19:23:26.312Z,17.53
2018-05-03T19:25:53.911Z,17.59
2018-05-03T19:28:21.584Z,17.52
2018-05-03T19:30:49.163Z,17.48
2018-05-03T19:33:16.751Z,17.35
2018-05-03T19:35:44.392Z,17.33
2018-05-03T19:38:12.007Z,17.37
2018-05-03T19:40:39.673Z,17.32
2018-05-03T19:43:07.263Z,17.33
2018-05-03T19:45:35.267Z,17.33
2018-05-03T19:48:02.870Z,17.30
2018-05-03T19:50:30.466Z,17.28
2018-05-03T19:52:58.091Z,17.21
2018-05-03T19:55:25.727Z,17.23
2018-05-03T19:57:53.344Z,17.27
2018-05-03T20:00:20.951Z,17.23
2018-05-03T20:02:48.772Z,17.23
2018-05-03T20:05:16.399Z,17.19
2018-05-03T20:07:43.994Z,17.05
2018-05-03T20:10:11.608Z,17.04
2018-05-03T20:12:39.212Z,17.09
2018-05-03T20:15:06.832Z,17.17
2018-05-03T20:17:34.513Z,17.18
2018-05-03T20:20:02.309Z,17.13
2018-05-03T20:22:29.898Z,17.04
2018-05-03T20:24:57.613Z,17.01
2018-05-03T20:27:25.159Z,17.06
2018-05-03T20:29:52.754Z,17.08
2018-05-03T20:32:20.371Z,17.08
2018-05-03T20:34:47.985Z,17.01
2018-05-03T20:37:15.625Z,16.99
2018-05-03T20:39:43.281Z,16.99
2018-05-03T20:42:11.557Z,16.98
2018-05-03T20:44:39.181Z,16.93
2018-05-03T20:47:06.770Z,17.04
2018-05-03T20:49:34.388Z,17.00
2018-05-03T20:52:02.078Z,16.87
2018-05-03T20:54:29.647Z,16.91
2018-05-03T20:56:57.247Z,16.83
2018-05-03T20:59:24.839Z,16.85
2018-05-03T21:01:52.465Z,16.86
2018-05-03T21:04:20.063Z,16.80
2018-05-03T21:06:47.720Z,16.67
2018-05-03T21:09:15.322Z,16.71
2018-05-03T21:11:43.130Z,16.64
2018-05-03T21:14:10.729Z,16.69
2018-05-03T21:16:38.351Z,16.68
2018-05-03T21:19:05.975Z,16.66
2018-05-03T21:21:33.571Z,16.61
2018-05-03T21:24:01.184Z,16.52
2018-05-03T21:26:28.853Z,16.50
2018-05-03T21:28:56.657Z,16.49
2018-05-03T21:31:24.253Z,16.47
2018-05-03T21:33:51.857Z,16.50
2018-05-03T21:36:19.489Z,16.45
2018-05-03T21:38:47.079Z,16.46
2018-05-03T21:41:14.701Z,16.52
2018-05-03T21:43:42.320Z,16.46
2018-05-03T21:46:09.937Z,16.52
2018-05-03T21:48:37.538Z,16.49
2018-05-03T21:51:05.413Z,16.45
2018-05-03T21:53:33.011Z,16.49
2018-05-03T21:56:00.611Z,16.39
2018-05-03T21:58:28.230Z,16.41
2018-05-03T22:00:55.826Z,16.33
2018-05-03T22:03:23.442Z,16.25
2018-05-03T22:05:51.038Z,16.34
2018-05-03T22:08:18.860Z,16.40
2018-05-03T22:10:46.461Z,16.25
2018-05-03T22:13:14.047Z,16.18
2018-05-03T22:15:41.674Z,16.25
2018-05-03T22:18:09.270Z,16.25
2018-05-03T22:20:36.890Z,16.32
2018-05-03T22:23:04.678Z,16.21
2018-05-03T22:25:32.586Z,16.24
2018-05-03T22:28:00.179Z,16.23
2018-05-03T22:30:27.779Z,16.22
2018-05-03T22:32:55.422Z,16.21
2018-05-03T22:35:23.018Z,16.19
2018-05-03T22:37:50.637Z,16.20
2018-05-03T22:40:18.238Z,16.15
2018-05-03T22:42:46.031Z,16.17
2018-05-03T22:45:13.622Z,16.16
2018-05-03T22:47:41.219Z,16.18
2018-05-03T22:50:08.852Z,16.15
2018-05-03T22:52:36.454Z,16.20
2018-05-03T22:55:04.235Z,16.18
2018-05-03T22:57:31.842Z,16.16
2018-05-03T22:59:59.439Z,16.15
2018-05-03T23:02:27.059Z,16.13
2018-05-03T23:04:54.662Z,16.09
2018-05-03T23:07:22.553Z,16.10
2018-05-03T23:09:50.146Z,16.00
2018-05-03T23:12:17.749Z,16.11
2018-05-03T23:14:45.362Z,16.10
2018-05-03T23:17:12.955Z,16.14
2018-05-03T23:19:40.575Z,16.17
2018-05-03T23:22:08.173Z,16.06
2018-05-03T23:24:35.988Z,15.99
2018-05-03T23:27:03.578Z,15.98
2018-05-03T23:29:31.170Z,16.06
2018-05-03T23:31:58.787Z,16.05
2018-05-03T23:34:26.394Z,15.88
2018-05-03T23:36:54.012Z,15.81
2018-05-03T23:39:21.618Z,15.77
2018-05-03T23:41:49.519Z,15.80
2018-05-03T23:44:17.114Z,15.74
2018-05-03T23:46:44.706Z,15.64
2018-05-03T23:49:12.333Z,15.64
2018-05-03T23:51:39.926Z,15.60
2018-05-03T23:54:07.542Z,15.54
2018-05-03T23:56:35.143Z,15.55
2018-05-03T23:59:02.953Z,15.52
